sensor_id;sensor_type;location;lat;lon;timestamp;P1;durP1;ratioP1;P2;durP2;ratioP2
12048;SDS011;6085;49.452;8.502;2024-02-04T00:04:01;0.50;;;0.50;;
12048;SDS011;6085;49.452;8.502;2024-02-04T00:08:03;0.32;;;0.32;;
12048;SDS011;6085;49.452;8.502;2024-02-04T00:12:06;0.60;;;0.60;;
12048;SDS011;6085;49.452;8.502;2024-02-04T00:16:09;0.63;;;0.63;;
12048;SDS011;6085;49.452;8.502;2024-02-04T00:20:11;0.40;;;0.40;;
12048;SDS011;6085;49.452;8.502;2024-02-04T00:24:12;0.52;;;0.52;;
12048;SDS011;6085;49.452;8.502;2024-02-04T00:28:16;0.40;;;0.40;;
12048;SDS011;6085;49.452;8.502;2024-02-04T00:32:18;0.43;;;0.40;;
12048;SDS011;6085;49.452;8.502;2024-02-04T00:36:20;0.38;;;0.38;;
12048;SDS011;6085;49.452;8.502;2024-02-04T00:40:22;0.60;;;0.50;;
12048;SDS011;6085;49.452;8.502;2024-02-04T00:44:25;0.30;;;0.30;;
12048;SDS011;6085;49.452;8.502;2024-02-04T00:48:27;0.70;;;0.70;;
12048;SDS011;6085;49.452;8.502;2024-02-04T00:52:29;0.30;;;0.30;;
12048;SDS011;6085;49.452;8.502;2024-02-04T00:56:31;0.40;;;0.40;;
12048;SDS011;6085;49.452;8.502;2024-02-04T01:00:34;0.20;;;0.20;;
12048;SDS011;6085;49.452;8.502;2024-02-04T01:04:36;0.30;;;0.30;;
12048;SDS011;6085;49.452;8.502;2024-02-04T01:08:38;0.30;;;0.30;;
12048;SDS011;6085;49.452;8.502;2024-02-04T01:12:39;0.20;;;0.20;;
12048;SDS011;6085;49.452;8.502;2024-02-04T01:16:43;0.40;;;0.40;;
12048;SDS011;6085;49.452;8.502;2024-02-04T01:20:44;0.68;;;0.68;;
12048;SDS011;6085;49.452;8.502;2024-02-04T01:24:46;0.40;;;0.40;;
12048;SDS011;6085;49.452;8.502;2024-02-04T01:28:49;0.40;;;0.40;;
12048;SDS011;6085;49.452;8.502;2024-02-04T01:32:53;0.35;;;0.35;;
12048;SDS011;6085;49.452;8.502;2024-02-04T01:36:54;0.50;;;0.50;;
12048;SDS011;6085;49.452;8.502;2024-02-04T01:40:56;0.40;;;0.40;;
12048;SDS011;6085;49.452;8.502;2024-02-04T01:44:58;0.40;;;0.40;;
12048;SDS011;6085;49.452;8.502;2024-02-04T01:49:01;0.65;;;0.65;;
12048;SDS011;6085;49.452;8.502;2024-02-04T01:53:03;0.70;;;0.70;;
12048;SDS011;6085;49.452;8.502;2024-02-04T01:57:05;0.68;;;0.68;;
12048;SDS011;6085;49.452;8.502;2024-02-04T02:01:08;1.08;;;0.73;;
12048;SDS011;6085;49.452;8.502;2024-02-04T02:05:12;0.88;;;0.88;;
12048;SDS011;6085;49.452;8.502;2024-02-04T02:09:14;0.90;;;0.90;;
12048;SDS011;6085;49.452;8.502;2024-02-04T02:13:18;0.70;;;0.70;;
12048;SDS011;6085;49.452;8.502;2024-02-04T02:17:24;1.00;;;0.90;;
12048;SDS011;6085;49.452;8.502;2024-02-04T02:21:38;0.80;;;0.80;;
12048;SDS011;6085;49.452;8.502;2024-02-04T02:25:49;1.00;;;1.00;;
12048;SDS011;6085;49.452;8.502;2024-02-04T02:29:52;1.08;;;1.00;;
12048;SDS011;6085;49.452;8.502;2024-02-04T02:33:54;1.95;;;1.30;;
12048;SDS011;6085;49.452;8.502;2024-02-04T02:37:56;2.67;;;1.10;;
12048;SDS011;6085;49.452;8.502;2024-02-04T02:42:08;1.25;;;1.15;;
12048;SDS011;6085;49.452;8.502;2024-02-04T02:46:12;0.70;;;0.70;;
12048;SDS011;6085;49.452;8.502;2024-02-04T02:50:15;0.95;;;0.90;;
12048;SDS011;6085;49.452;8.502;2024-02-04T02:54:17;2.05;;;1.40;;
12048;SDS011;6085;49.452;8.502;2024-02-04T02:58:22;1.25;;;1.00;;
12048;SDS011;6085;49.452;8.502;2024-02-04T03:02:24;1.80;;;1.65;;
12048;SDS011;6085;49.452;8.502;2024-02-04T03:06:26;0.82;;;0.80;;
12048;SDS011;6085;49.452;8.502;2024-02-04T03:10:27;1.20;;;1.10;;
12048;SDS011;6085;49.452;8.502;2024-02-04T03:14:31;1.08;;;0.93;;
12048;SDS011;6085;49.452;8.502;2024-02-04T03:18:32;1.08;;;1.00;;
12048;SDS011;6085;49.452;8.502;2024-02-04T03:22:34;1.13;;;1.02;;
12048;SDS011;6085;49.452;8.502;2024-02-04T03:26:36;0.65;;;0.63;;
12048;SDS011;6085;49.452;8.502;2024-02-04T03:30:39;0.47;;;0.47;;
12048;SDS011;6085;49.452;8.502;2024-02-04T03:34:41;0.43;;;0.32;;
12048;SDS011;6085;49.452;8.502;2024-02-04T03:38:43;0.30;;;0.30;;
12048;SDS011;6085;49.452;8.502;2024-02-04T03:42:45;0.45;;;0.45;;
12048;SDS011;6085;49.452;8.502;2024-02-04T03:46:49;0.35;;;0.30;;
12048;SDS011;6085;49.452;8.502;2024-02-04T03:50:51;0.25;;;0.25;;
12048;SDS011;6085;49.452;8.502;2024-02-04T03:54:53;0.40;;;0.40;;
12048;SDS011;6085;49.452;8.502;2024-02-04T03:58:55;0.38;;;0.38;;
12048;SDS011;6085;49.452;8.502;2024-02-04T04:02:58;0.30;;;0.30;;
12048;SDS011;6085;49.452;8.502;2024-02-04T04:07:00;0.38;;;0.38;;
12048;SDS011;6085;49.452;8.502;2024-02-04T04:11:01;0.20;;;0.20;;
12048;SDS011;6085;49.452;8.502;2024-02-04T04:15:05;0.30;;;0.30;;
12048;SDS011;6085;49.452;8.502;2024-02-04T04:19:09;0.60;;;0.30;;
12048;SDS011;6085;49.452;8.502;2024-02-04T04:23:11;0.30;;;0.30;;
12048;SDS011;6085;49.452;8.502;2024-02-04T04:27:13;0.10;;;0.10;;
12048;SDS011;6085;49.452;8.502;2024-02-04T04:31:15;0.30;;;0.30;;
12048;SDS011;6085;49.452;8.502;2024-02-04T04:35:18;0.70;;;0.65;;
12048;SDS011;6085;49.452;8.502;2024-02-04T04:39:20;0.30;;;0.30;;
12048;SDS011;6085;49.452;8.502;2024-02-04T04:43:22;0.30;;;0.30;;
12048;SDS011;6085;49.452;8.502;2024-02-04T04:47:24;0.15;;;0.15;;
12048;SDS011;6085;49.452;8.502;2024-02-04T04:51:27;0.20;;;0.20;;
12048;SDS011;6085;49.452;8.502;2024-02-04T04:55:29;0.30;;;0.30;;
12048;SDS011;6085;49.452;8.502;2024-02-04T04:59:31;0.22;;;0.22;;
12048;SDS011;6085;49.452;8.502;2024-02-04T05:03:33;0.20;;;0.20;;
12048;SDS011;6085;49.452;8.502;2024-02-04T05:07:36;0.25;;;0.25;;
12048;SDS011;6085;49.452;8.502;2024-02-04T05:11:38;0.22;;;0.22;;
12048;SDS011;6085;49.452;8.502;2024-02-04T05:15:39;0.20;;;0.20;;
12048;SDS011;6085;49.452;8.502;2024-02-04T05:19:41;0.30;;;0.30;;
12048;SDS011;6085;49.452;8.502;2024-02-04T05:23:44;0.30;;;0.30;;
12048;SDS011;6085;49.452;8.502;2024-02-04T05:27:46;1.80;;;0.45;;
12048;SDS011;6085;49.452;8.502;2024-02-04T05:31:48;0.30;;;0.30;;
12048;SDS011;6085;49.452;8.502;2024-02-04T05:35:50;0.22;;;0.22;;
12048;SDS011;6085;49.452;8.502;2024-02-04T05:39:53;0.30;;;0.30;;
12048;SDS011;6085;49.452;8.502;2024-02-04T05:43:55;0.17;;;0.17;;
12048;SDS011;6085;49.452;8.502;2024-02-04T05:47:57;0.20;;;0.20;;
12048;SDS011;6085;49.452;8.502;2024-02-04T05:51:59;0.20;;;0.20;;
12048;SDS011;6085;49.452;8.502;2024-02-04T05:56:02;0.13;;;0.13;;
12048;SDS011;6085;49.452;8.502;2024-02-04T06:00:04;0.20;;;0.20;;
12048;SDS011;6085;49.452;8.502;2024-02-04T06:04:07;0.20;;;0.20;;
12048;SDS011;6085;49.452;8.502;2024-02-04T06:08:09;0.20;;;0.20;;
12048;SDS011;6085;49.452;8.502;2024-02-04T06:12:12;0.38;;;0.22;;
12048;SDS011;6085;49.452;8.502;2024-02-04T06:16:14;0.45;;;0.45;;
12048;SDS011;6085;49.452;8.502;2024-02-04T06:20:16;0.25;;;0.25;;
12048;SDS011;6085;49.452;8.502;2024-02-04T06:24:18;2.03;;;0.65;;
12048;SDS011;6085;49.452;8.502;2024-02-04T06:28:21;0.43;;;0.43;;
12048;SDS011;6085;49.452;8.502;2024-02-04T06:32:23;0.50;;;0.50;;
12048;SDS011;6085;49.452;8.502;2024-02-04T06:36:25;0.52;;;0.52;;
12048;SDS011;6085;49.452;8.502;2024-02-04T06:40:27;0.60;;;0.60;;
12048;SDS011;6085;49.452;8.502;2024-02-04T06:44:30;0.40;;;0.40;;
12048;SDS011;6085;49.452;8.502;2024-02-04T06:48:32;0.55;;;0.55;;
12048;SDS011;6085;49.452;8.502;2024-02-04T06:52:33;1.08;;;0.40;;
12048;SDS011;6085;49.452;8.502;2024-02-04T06:56:35;0.77;;;0.50;;
12048;SDS011;6085;49.452;8.502;2024-02-04T07:00:39;0.50;;;0.50;;
12048;SDS011;6085;49.452;8.502;2024-02-04T07:04:41;0.38;;;0.38;;
12048;SDS011;6085;49.452;8.502;2024-02-04T07:08:43;0.50;;;0.50;;
12048;SDS011;6085;49.452;8.502;2024-02-04T07:12:45;0.95;;;0.73;;
12048;SDS011;6085;49.452;8.502;2024-02-04T07:16:48;1.45;;;0.98;;
12048;SDS011;6085;49.452;8.502;2024-02-04T07:20:50;0.60;;;0.60;;
12048;SDS011;6085;49.452;8.502;2024-02-04T07:24:52;0.73;;;0.73;;
12048;SDS011;6085;49.452;8.502;2024-02-04T07:28:54;0.57;;;0.40;;
12048;SDS011;6085;49.452;8.502;2024-02-04T07:32:58;0.50;;;0.50;;
12048;SDS011;6085;49.452;8.502;2024-02-04T07:36:59;1.13;;;0.70;;
12048;SDS011;6085;49.452;8.502;2024-02-04T07:41:02;0.98;;;0.98;;
12048;SDS011;6085;49.452;8.502;2024-02-04T07:45:04;1.33;;;1.23;;
12048;SDS011;6085;49.452;8.502;2024-02-04T07:49:10;0.98;;;0.98;;
12048;SDS011;6085;49.452;8.502;2024-02-04T07:53:12;0.77;;;0.75;;
12048;SDS011;6085;49.452;8.502;2024-02-04T07:57:14;0.80;;;0.80;;
12048;SDS011;6085;49.452;8.502;2024-02-04T08:01:17;1.48;;;1.23;;
12048;SDS011;6085;49.452;8.502;2024-02-04T08:05:21;2.38;;;1.05;;
12048;SDS011;6085;49.452;8.502;2024-02-04T08:09:22;0.80;;;0.80;;
12048;SDS011;6085;49.452;8.502;2024-02-04T08:13:25;1.17;;;1.08;;
12048;SDS011;6085;49.452;8.502;2024-02-04T08:17:27;0.75;;;0.75;;
12048;SDS011;6085;49.452;8.502;2024-02-04T08:21:32;1.13;;;1.08;;
12048;SDS011;6085;49.452;8.502;2024-02-04T08:25:34;0.65;;;0.65;;
12048;SDS011;6085;49.452;8.502;2024-02-04T08:29:36;1.75;;;0.77;;
12048;SDS011;6085;49.452;8.502;2024-02-04T08:33:38;1.13;;;0.73;;
12048;SDS011;6085;49.452;8.502;2024-02-04T08:37:41;0.63;;;0.63;;
12048;SDS011;6085;49.452;8.502;2024-02-04T08:41:43;0.70;;;0.70;;
12048;SDS011;6085;49.452;8.502;2024-02-04T08:45:45;0.55;;;0.55;;
12048;SDS011;6085;49.452;8.502;2024-02-04T08:49:47;1.10;;;0.70;;
12048;SDS011;6085;49.452;8.502;2024-02-04T08:53:50;0.40;;;0.40;;
12048;SDS011;6085;49.452;8.502;2024-02-04T08:57:52;0.73;;;0.73;;
12048;SDS011;6085;49.452;8.502;2024-02-04T09:01:54;0.65;;;0.60;;
12048;SDS011;6085;49.452;8.502;2024-02-04T09:05:56;0.80;;;0.80;;
12048;SDS011;6085;49.452;8.502;2024-02-04T09:09:59;0.68;;;0.68;;
12048;SDS011;6085;49.452;8.502;2024-02-04T09:14:01;0.50;;;0.50;;
12048;SDS011;6085;49.452;8.502;2024-02-04T09:18:04;0.50;;;0.50;;
12048;SDS011;6085;49.452;8.502;2024-02-04T09:22:06;0.50;;;0.38;;
12048;SDS011;6085;49.452;8.502;2024-02-04T09:26:12;0.63;;;0.63;;
12048;SDS011;6085;49.452;8.502;2024-02-04T09:30:14;0.57;;;0.57;;
12048;SDS011;6085;49.452;8.502;2024-02-04T09:34:16;1.17;;;0.68;;
12048;SDS011;6085;49.452;8.502;2024-02-04T09:38:19;0.47;;;0.47;;
12048;SDS011;6085;49.452;8.502;2024-02-04T09:42:23;0.95;;;0.80;;
12048;SDS011;6085;49.452;8.502;2024-02-04T09:46:25;0.40;;;0.40;;
12048;SDS011;6085;49.452;8.502;2024-02-04T09:50:27;0.30;;;0.30;;
12048;SDS011;6085;49.452;8.502;2024-02-04T09:54:29;0.75;;;0.38;;
12048;SDS011;6085;49.452;8.502;2024-02-04T09:58:34;0.38;;;0.38;;
12048;SDS011;6085;49.452;8.502;2024-02-04T10:02:36;0.30;;;0.30;;
12048;SDS011;6085;49.452;8.502;2024-02-04T10:06:38;0.47;;;0.47;;
12048;SDS011;6085;49.452;8.502;2024-02-04T10:10:40;0.10;;;0.10;;
12048;SDS011;6085;49.452;8.502;2024-02-04T10:14:43;0.20;;;0.20;;
12048;SDS011;6085;49.452;8.502;2024-02-04T10:18:46;0.28;;;0.28;;
12048;SDS011;6085;49.452;8.502;2024-02-04T10:22:49;0.20;;;0.20;;
12048;SDS011;6085;49.452;8.502;2024-02-04T10:26:51;0.30;;;0.30;;
12048;SDS011;6085;49.452;8.502;2024-02-04T10:30:54;0.32;;;0.32;;
12048;SDS011;6085;49.452;8.502;2024-02-04T10:34:57;0.20;;;0.20;;
12048;SDS011;6085;49.452;8.502;2024-02-04T10:38:59;0.20;;;0.20;;
12048;SDS011;6085;49.452;8.502;2024-02-04T10:43:03;0.32;;;0.32;;
12048;SDS011;6085;49.452;8.502;2024-02-04T10:47:09;0.20;;;0.20;;
12048;SDS011;6085;49.452;8.502;2024-02-04T10:51:17;0.30;;;0.30;;
12048;SDS011;6085;49.452;8.502;2024-02-04T10:55:25;0.15;;;0.15;;
12048;SDS011;6085;49.452;8.502;2024-02-04T10:59:31;0.30;;;0.30;;
12048;SDS011;6085;49.452;8.502;2024-02-04T11:03:37;0.15;;;0.15;;
12048;SDS011;6085;49.452;8.502;2024-02-04T11:07:40;0.30;;;0.30;;
12048;SDS011;6085;49.452;8.502;2024-02-04T11:11:43;0.20;;;0.20;;
12048;SDS011;6085;49.452;8.502;2024-02-04T11:15:46;0.10;;;0.10;;
12048;SDS011;6085;49.452;8.502;2024-02-04T11:20:01;0.40;;;0.25;;
12048;SDS011;6085;49.452;8.502;2024-02-04T11:24:21;0.65;;;0.30;;
12048;SDS011;6085;49.452;8.502;2024-02-04T11:28:34;0.20;;;0.20;;
12048;SDS011;6085;49.452;8.502;2024-02-04T11:32:36;0.30;;;0.30;;
12048;SDS011;6085;49.452;8.502;2024-02-04T11:36:40;0.20;;;0.20;;
12048;SDS011;6085;49.452;8.502;2024-02-04T11:40:41;0.38;;;0.38;;
12048;SDS011;6085;49.452;8.502;2024-02-04T11:44:43;0.20;;;0.20;;
12048;SDS011;6085;49.452;8.502;2024-02-04T11:48:51;1.45;;;0.70;;
12048;SDS011;6085;49.452;8.502;2024-02-04T11:53:02;0.43;;;0.43;;
12048;SDS011;6085;49.452;8.502;2024-02-04T11:57:06;0.30;;;0.30;;
12048;SDS011;6085;49.452;8.502;2024-02-04T12:01:09;0.30;;;0.30;;
12048;SDS011;6085;49.452;8.502;2024-02-04T12:05:11;0.65;;;0.55;;
12048;SDS011;6085;49.452;8.502;2024-02-04T12:09:17;0.50;;;0.50;;
12048;SDS011;6085;49.452;8.502;2024-02-04T12:13:19;0.20;;;0.20;;
12048;SDS011;6085;49.452;8.502;2024-02-04T12:17:21;0.57;;;0.40;;
12048;SDS011;6085;49.452;8.502;2024-02-04T12:21:24;0.30;;;0.30;;
12048;SDS011;6085;49.452;8.502;2024-02-04T12:25:28;0.28;;;0.28;;
12048;SDS011;6085;49.452;8.502;2024-02-04T12:29:31;0.40;;;0.40;;
12048;SDS011;6085;49.452;8.502;2024-02-04T12:33:33;1.55;;;0.30;;
12048;SDS011;6085;49.452;8.502;2024-02-04T12:37:37;0.20;;;0.20;;
12048;SDS011;6085;49.452;8.502;2024-02-04T12:41:40;0.30;;;0.30;;
12048;SDS011;6085;49.452;8.502;2024-02-04T12:45:42;0.20;;;0.20;;
12048;SDS011;6085;49.452;8.502;2024-02-04T12:49:44;0.30;;;0.30;;
12048;SDS011;6085;49.452;8.502;2024-02-04T12:53:46;0.40;;;0.40;;
12048;SDS011;6085;49.452;8.502;2024-02-04T12:57:49;0.40;;;0.40;;
12048;SDS011;6085;49.452;8.502;2024-02-04T13:01:52;0.88;;;0.70;;
12048;SDS011;6085;49.452;8.502;2024-02-04T13:05:58;1.70;;;1.05;;
12048;SDS011;6085;49.452;8.502;2024-02-04T13:10:00;2.85;;;1.50;;
12048;SDS011;6085;49.452;8.502;2024-02-04T13:14:03;0.40;;;0.40;;
12048;SDS011;6085;49.452;8.502;2024-02-04T13:18:07;0.40;;;0.40;;
12048;SDS011;6085;49.452;8.502;2024-02-04T13:22:11;0.60;;;0.60;;
12048;SDS011;6085;49.452;8.502;2024-02-04T13:26:16;0.50;;;0.50;;
12048;SDS011;6085;49.452;8.502;2024-02-04T13:30:19;0.25;;;0.25;;
12048;SDS011;6085;49.452;8.502;2024-02-04T13:34:21;0.43;;;0.40;;
12048;SDS011;6085;49.452;8.502;2024-02-04T13:38:23;0.50;;;0.50;;
12048;SDS011;6085;49.452;8.502;2024-02-04T13:42:25;0.40;;;0.40;;
12048;SDS011;6085;49.452;8.502;2024-02-04T13:46:28;0.43;;;0.43;;
12048;SDS011;6085;49.452;8.502;2024-02-04T13:50:30;2.38;;;1.10;;
12048;SDS011;6085;49.452;8.502;2024-02-04T13:54:32;1.85;;;1.02;;
12048;SDS011;6085;49.452;8.502;2024-02-04T13:58:34;0.68;;;0.68;;
12048;SDS011;6085;49.452;8.502;2024-02-04T14:02:37;0.68;;;0.63;;
12048;SDS011;6085;49.452;8.502;2024-02-04T14:06:39;1.35;;;1.00;;
12048;SDS011;6085;49.452;8.502;2024-02-04T14:10:41;0.82;;;0.80;;
12048;SDS011;6085;49.452;8.502;2024-02-04T14:14:43;0.50;;;0.50;;
12048;SDS011;6085;49.452;8.502;2024-02-04T14:18:46;0.50;;;0.50;;
12048;SDS011;6085;49.452;8.502;2024-02-04T14:22:48;1.08;;;0.98;;
12048;SDS011;6085;49.452;8.502;2024-02-04T14:26:55;0.40;;;0.40;;
12048;SDS011;6085;49.452;8.502;2024-02-04T14:30:57;0.65;;;0.65;;
12048;SDS011;6085;49.452;8.502;2024-02-04T14:35:00;0.70;;;0.70;;
12048;SDS011;6085;49.452;8.502;2024-02-04T14:39:04;0.88;;;0.88;;
12048;SDS011;6085;49.452;8.502;2024-02-04T14:43:06;0.50;;;0.50;;
12048;SDS011;6085;49.452;8.502;2024-02-04T14:47:09;0.77;;;0.50;;
12048;SDS011;6085;49.452;8.502;2024-02-04T14:51:13;0.47;;;0.47;;
12048;SDS011;6085;49.452;8.502;2024-02-04T14:55:14;0.43;;;0.43;;
12048;SDS011;6085;49.452;8.502;2024-02-04T14:59:16;0.35;;;0.35;;
12048;SDS011;6085;49.452;8.502;2024-02-04T15:03:18;0.50;;;0.47;;
12048;SDS011;6085;49.452;8.502;2024-02-04T15:07:23;0.50;;;0.50;;
12048;SDS011;6085;49.452;8.502;2024-02-04T15:11:27;0.28;;;0.28;;
12048;SDS011;6085;49.452;8.502;2024-02-04T15:15:29;0.50;;;0.50;;
12048;SDS011;6085;49.452;8.502;2024-02-04T15:19:32;0.50;;;0.40;;
12048;SDS011;6085;49.452;8.502;2024-02-04T15:23:37;0.50;;;0.50;;
12048;SDS011;6085;49.452;8.502;2024-02-04T15:27:40;0.45;;;0.45;;
12048;SDS011;6085;49.452;8.502;2024-02-04T15:31:44;0.80;;;0.80;;
12048;SDS011;6085;49.452;8.502;2024-02-04T15:35:49;0.40;;;0.40;;
12048;SDS011;6085;49.452;8.502;2024-02-04T15:39:52;0.95;;;0.95;;
12048;SDS011;6085;49.452;8.502;2024-02-04T15:43:55;0.35;;;0.35;;
12048;SDS011;6085;49.452;8.502;2024-02-04T15:47:57;0.77;;;0.70;;
12048;SDS011;6085;49.452;8.502;2024-02-04T15:52:04;0.52;;;0.52;;
12048;SDS011;6085;49.452;8.502;2024-02-04T15:56:09;0.40;;;0.40;;
12048;SDS011;6085;49.452;8.502;2024-02-04T16:00:12;0.50;;;0.50;;
12048;SDS011;6085;49.452;8.502;2024-02-04T16:04:22;0.30;;;0.30;;
12048;SDS011;6085;49.452;8.502;2024-02-04T16:08:25;0.30;;;0.30;;
12048;SDS011;6085;49.452;8.502;2024-02-04T16:12:29;0.50;;;0.50;;
12048;SDS011;6085;49.452;8.502;2024-02-04T16:16:33;0.60;;;0.60;;
12048;SDS011;6085;49.452;8.502;2024-02-04T16:20:40;0.80;;;0.80;;
12048;SDS011;6085;49.452;8.502;2024-02-04T16:24:45;0.55;;;0.43;;
12048;SDS011;6085;49.452;8.502;2024-02-04T16:28:49;0.80;;;0.70;;
12048;SDS011;6085;49.452;8.502;2024-02-04T16:32:51;0.47;;;0.47;;
12048;SDS011;6085;49.452;8.502;2024-02-04T16:36:52;0.40;;;0.40;;
12048;SDS011;6085;49.452;8.502;2024-02-04T16:40:54;0.45;;;0.40;;
12048;SDS011;6085;49.452;8.502;2024-02-04T16:44:57;0.40;;;0.40;;
12048;SDS011;6085;49.452;8.502;2024-02-04T16:48:59;0.40;;;0.40;;
12048;SDS011;6085;49.452;8.502;2024-02-04T16:53:01;0.80;;;0.40;;
12048;SDS011;6085;49.452;8.502;2024-02-04T16:57:03;3.22;;;0.98;;
12048;SDS011;6085;49.452;8.502;2024-02-04T17:01:08;0.77;;;0.45;;
12048;SDS011;6085;49.452;8.502;2024-02-04T17:05:10;0.25;;;0.25;;
12048;SDS011;6085;49.452;8.502;2024-02-04T17:09:13;0.60;;;0.60;;
12048;SDS011;6085;49.452;8.502;2024-02-04T17:13:15;0.80;;;0.80;;
12048;SDS011;6085;49.452;8.502;2024-02-04T17:17:19;1.27;;;0.63;;
12048;SDS011;6085;49.452;8.502;2024-02-04T17:21:24;1.83;;;1.48;;
12048;SDS011;6085;49.452;8.502;2024-02-04T17:25:33;0.75;;;0.40;;
12048;SDS011;6085;49.452;8.502;2024-02-04T17:29:41;0.40;;;0.40;;
12048;SDS011;6085;49.452;8.502;2024-02-04T17:33:45;0.30;;;0.30;;
12048;SDS011;6085;49.452;8.502;2024-02-04T17:37:50;0.55;;;0.55;;
12048;SDS011;6085;49.452;8.502;2024-02-04T17:41:52;0.20;;;0.20;;
12048;SDS011;6085;49.452;8.502;2024-02-04T17:45:54;0.20;;;0.20;;
12048;SDS011;6085;49.452;8.502;2024-02-04T17:49:57;0.73;;;0.73;;
12048;SDS011;6085;49.452;8.502;2024-02-04T17:54:00;0.40;;;0.40;;
12048;SDS011;6085;49.452;8.502;2024-02-04T17:58:03;0.20;;;0.20;;
12048;SDS011;6085;49.452;8.502;2024-02-04T18:02:06;0.38;;;0.30;;
12048;SDS011;6085;49.452;8.502;2024-02-04T18:06:09;0.60;;;0.60;;
12048;SDS011;6085;49.452;8.502;2024-02-04T18:10:11;0.80;;;0.80;;
12048;SDS011;6085;49.452;8.502;2024-02-04T18:14:13;0.40;;;0.40;;
12048;SDS011;6085;49.452;8.502;2024-02-04T18:18:15;0.98;;;0.45;;
12048;SDS011;6085;49.452;8.502;2024-02-04T18:22:18;0.52;;;0.52;;
12048;SDS011;6085;49.452;8.502;2024-02-04T18:26:20;0.45;;;0.30;;
12048;SDS011;6085;49.452;8.502;2024-02-04T18:30:23;0.55;;;0.50;;
12048;SDS011;6085;49.452;8.502;2024-02-04T18:34:25;0.40;;;0.40;;
12048;SDS011;6085;49.452;8.502;2024-02-04T18:38:28;0.20;;;0.20;;
12048;SDS011;6085;49.452;8.502;2024-02-04T18:42:30;0.20;;;0.20;;
12048;SDS011;6085;49.452;8.502;2024-02-04T18:46:35;0.20;;;0.20;;
12048;SDS011;6085;49.452;8.502;2024-02-04T18:50:37;0.30;;;0.30;;
12048;SDS011;6085;49.452;8.502;2024-02-04T18:54:41;0.20;;;0.20;;
12048;SDS011;6085;49.452;8.502;2024-02-04T18:58:42;0.40;;;0.40;;
12048;SDS011;6085;49.452;8.502;2024-02-04T19:02:45;0.40;;;0.40;;
12048;SDS011;6085;49.452;8.502;2024-02-04T19:06:47;0.60;;;0.47;;
12048;SDS011;6085;49.452;8.502;2024-02-04T19:10:51;0.68;;;0.30;;
12048;SDS011;6085;49.452;8.502;2024-02-04T19:14:53;1.42;;;0.20;;
12048;SDS011;6085;49.452;8.502;2024-02-04T19:18:55;0.30;;;0.30;;
12048;SDS011;6085;49.452;8.502;2024-02-04T19:22:56;0.50;;;0.50;;
12048;SDS011;6085;49.452;8.502;2024-02-04T19:27:00;0.30;;;0.30;;
12048;SDS011;6085;49.452;8.502;2024-02-04T19:31:01;0.55;;;0.55;;
12048;SDS011;6085;49.452;8.502;2024-02-04T19:35:04;0.65;;;0.65;;
12048;SDS011;6085;49.452;8.502;2024-02-04T19:39:06;0.88;;;0.73;;
12048;SDS011;6085;49.452;8.502;2024-02-04T19:43:09;0.20;;;0.20;;
12048;SDS011;6085;49.452;8.502;2024-02-04T19:47:11;0.25;;;0.25;;
12048;SDS011;6085;49.452;8.502;2024-02-04T19:51:13;0.20;;;0.20;;
12048;SDS011;6085;49.452;8.502;2024-02-04T19:55:15;0.15;;;0.15;;
12048;SDS011;6085;49.452;8.502;2024-02-04T19:59:18;0.10;;;0.10;;
12048;SDS011;6085;49.452;8.502;2024-02-04T20:03:20;0.20;;;0.20;;
12048;SDS011;6085;49.452;8.502;2024-02-04T20:07:22;0.30;;;0.30;;
12048;SDS011;6085;49.452;8.502;2024-02-04T20:11:24;0.30;;;0.30;;
12048;SDS011;6085;49.452;8.502;2024-02-04T20:15:27;1.45;;;0.40;;
12048;SDS011;6085;49.452;8.502;2024-02-04T20:19:29;0.25;;;0.25;;
12048;SDS011;6085;49.452;8.502;2024-02-04T20:23:31;0.30;;;0.30;;
12048;SDS011;6085;49.452;8.502;2024-02-04T20:27:34;0.10;;;0.10;;
12048;SDS011;6085;49.452;8.502;2024-02-04T20:31:37;0.20;;;0.20;;
12048;SDS011;6085;49.452;8.502;2024-02-04T20:35:40;0.30;;;0.30;;
12048;SDS011;6085;49.452;8.502;2024-02-04T20:39:43;0.10;;;0.10;;
12048;SDS011;6085;49.452;8.502;2024-02-04T20:43:45;0.10;;;0.10;;
12048;SDS011;6085;49.452;8.502;2024-02-04T20:47:49;0.15;;;0.15;;
12048;SDS011;6085;49.452;8.502;2024-02-04T20:51:52;0.20;;;0.20;;
12048;SDS011;6085;49.452;8.502;2024-02-04T20:55:54;0.20;;;0.20;;
12048;SDS011;6085;49.452;8.502;2024-02-04T20:59:55;0.20;;;0.20;;
12048;SDS011;6085;49.452;8.502;2024-02-04T21:03:59;0.20;;;0.20;;
12048;SDS011;6085;49.452;8.502;2024-02-04T21:08:02;0.20;;;0.20;;
12048;SDS011;6085;49.452;8.502;2024-02-04T21:12:05;0.17;;;0.17;;
12048;SDS011;6085;49.452;8.502;2024-02-04T21:16:07;0.10;;;0.10;;
12048;SDS011;6085;49.452;8.502;2024-02-04T21:20:10;0.30;;;0.30;;
12048;SDS011;6085;49.452;8.502;2024-02-04T21:24:13;0.28;;;0.28;;
12048;SDS011;6085;49.452;8.502;2024-02-04T21:28:15;0.57;;;0.30;;
12048;SDS011;6085;49.452;8.502;2024-02-04T21:32:16;0.30;;;0.30;;
12048;SDS011;6085;49.452;8.502;2024-02-04T21:36:20;0.47;;;0.25;;
12048;SDS011;6085;49.452;8.502;2024-02-04T21:40:21;0.20;;;0.20;;
12048;SDS011;6085;49.452;8.502;2024-02-04T21:44:25;0.17;;;0.17;;
12048;SDS011;6085;49.452;8.502;2024-02-04T21:48:27;0.25;;;0.25;;
12048;SDS011;6085;49.452;8.502;2024-02-04T21:52:31;0.30;;;0.30;;
12048;SDS011;6085;49.452;8.502;2024-02-04T21:56:32;0.30;;;0.30;;
12048;SDS011;6085;49.452;8.502;2024-02-04T22:00:34;0.22;;;0.22;;
12048;SDS011;6085;49.452;8.502;2024-02-04T22:04:37;0.40;;;0.40;;
12048;SDS011;6085;49.452;8.502;2024-02-04T22:08:40;0.38;;;0.38;;
12048;SDS011;6085;49.452;8.502;2024-02-04T22:12:42;0.30;;;0.30;;
12048;SDS011;6085;49.452;8.502;2024-02-04T22:16:44;0.35;;;0.35;;
12048;SDS011;6085;49.452;8.502;2024-02-04T22:20:46;0.20;;;0.20;;
12048;SDS011;6085;49.452;8.502;2024-02-04T22:24:50;0.43;;;0.43;;
12048;SDS011;6085;49.452;8.502;2024-02-04T22:28:51;0.30;;;0.30;;
12048;SDS011;6085;49.452;8.502;2024-02-04T22:32:53;0.35;;;0.28;;
12048;SDS011;6085;49.452;8.502;2024-02-04T22:36:55;0.30;;;0.30;;
12048;SDS011;6085;49.452;8.502;2024-02-04T22:40:58;0.20;;;0.20;;
12048;SDS011;6085;49.452;8.502;2024-02-04T22:45:00;0.50;;;0.22;;
12048;SDS011;6085;49.452;8.502;2024-02-04T22:49:02;0.45;;;0.45;;
12048;SDS011;6085;49.452;8.502;2024-02-04T22:53:04;0.77;;;0.30;;
12048;SDS011;6085;49.452;8.502;2024-02-04T22:57:07;0.38;;;0.30;;
12048;SDS011;6085;49.452;8.502;2024-02-04T23:01:09;0.20;;;0.20;;
12048;SDS011;6085;49.452;8.502;2024-02-04T23:05:12;0.32;;;0.32;;
12048;SDS011;6085;49.452;8.502;2024-02-04T23:09:14;0.40;;;0.40;;
12048;SDS011;6085;49.452;8.502;2024-02-04T23:13:18;0.20;;;0.20;;
12048;SDS011;6085;49.452;8.502;2024-02-04T23:17:20;0.40;;;0.40;;
12048;SDS011;6085;49.452;8.502;2024-02-04T23:21:22;0.20;;;0.20;;
12048;SDS011;6085;49.452;8.502;2024-02-04T23:25:25;0.20;;;0.20;;
12048;SDS011;6085;49.452;8.502;2024-02-04T23:29:28;0.20;;;0.20;;
12048;SDS011;6085;49.452;8.502;2024-02-04T23:33:30;0.40;;;0.40;;
12048;SDS011;6085;49.452;8.502;2024-02-04T23:37:32;0.98;;;0.30;;
12048;SDS011;6085;49.452;8.502;2024-02-04T23:41:34;0.20;;;0.20;;
12048;SDS011;6085;49.452;8.502;2024-02-04T23:45:38;0.20;;;0.20;;
12048;SDS011;6085;49.452;8.502;2024-02-04T23:49:40;0.50;;;0.50;;
12048;SDS011;6085;49.452;8.502;2024-02-04T23:53:42;0.30;;;0.30;;
12048;SDS011;6085;49.452;8.502;2024-02-04T23:57:44;0.30;;;0.30;;
